sensor_id;sensor_type;location;lat;lon;timestamp;P1;durP1;ratioP1;P2;durP2;ratioP2
51925;SDS011;37952;51.938;15.480;2023-04-06T00:03:36;10.30;;;7.20;;
51925;SDS011;37952;51.938;15.480;2023-04-06T00:06:40;8.90;;;7.00;;
51925;SDS011;37952;51.938;15.480;2023-04-06T00:13:13;8.30;;;6.60;;
51925;SDS011;37952;51.938;15.480;2023-04-06T00:16:16;9.20;;;7.40;;
51925;SDS011;37952;51.938;15.480;2023-04-06T00:19:19;10.50;;;8.00;;
51925;SDS011;37952;51.938;15.480;2023-04-06T00:22:22;11.20;;;8.60;;
51925;SDS011;37952;51.938;15.480;2023-04-06T00:25:25;11.00;;;8.10;;
51925;SDS011;37952;51.938;15.480;2023-04-06T00:28:28;14.30;;;10.00;;
51925;SDS011;37952;51.938;15.480;2023-04-06T00:31:32;18.30;;;10.60;;
51925;SDS011;37952;51.938;15.480;2023-04-06T00:34:35;12.90;;;9.40;;
51925;SDS011;37952;51.938;15.480;2023-04-06T00:37:38;14.90;;;9.90;;
51925;SDS011;37952;51.938;15.480;2023-04-06T00:40:41;26.30;;;11.40;;
51925;SDS011;37952;51.938;15.480;2023-04-06T00:43:46;21.30;;;11.10;;
51925;SDS011;37952;51.938;15.480;2023-04-06T00:46:49;13.60;;;10.40;;
51925;SDS011;37952;51.938;15.480;2023-04-06T00:49:52;15.90;;;10.90;;
51925;SDS011;37952;51.938;15.480;2023-04-06T00:52:56;17.00;;;10.70;;
51925;SDS011;37952;51.938;15.480;2023-04-06T00:55:59;17.10;;;11.10;;
51925;SDS011;37952;51.938;15.480;2023-04-06T00:59:01;20.20;;;11.00;;
51925;SDS011;37952;51.938;15.480;2023-04-06T01:02:04;16.40;;;11.20;;
51925;SDS011;37952;51.938;15.480;2023-04-06T01:05:08;18.50;;;11.70;;
51925;SDS011;37952;51.938;15.480;2023-04-06T01:08:11;15.30;;;11.20;;
51925;SDS011;37952;51.938;15.480;2023-04-06T01:11:13;16.20;;;10.70;;
51925;SDS011;37952;51.938;15.480;2023-04-06T01:14:16;17.30;;;10.30;;
51925;SDS011;37952;51.938;15.480;2023-04-06T01:17:18;18.20;;;11.10;;
51925;SDS011;37952;51.938;15.480;2023-04-06T01:20:21;18.20;;;11.60;;
51925;SDS011;37952;51.938;15.480;2023-04-06T01:23:24;16.30;;;11.40;;
51925;SDS011;37952;51.938;15.480;2023-04-06T01:26:27;16.00;;;10.70;;
51925;SDS011;37952;51.938;15.480;2023-04-06T01:29:31;18.60;;;11.50;;
51925;SDS011;37952;51.938;15.480;2023-04-06T01:32:34;15.70;;;11.80;;
51925;SDS011;37952;51.938;15.480;2023-04-06T01:35:37;15.90;;;11.10;;
51925;SDS011;37952;51.938;15.480;2023-04-06T01:38:40;20.20;;;12.00;;
51925;SDS011;37952;51.938;15.480;2023-04-06T01:41:43;19.60;;;11.20;;
51925;SDS011;37952;51.938;15.480;2023-04-06T01:44:46;18.10;;;11.80;;
51925;SDS011;37952;51.938;15.480;2023-04-06T01:47:49;15.40;;;10.90;;
51925;SDS011;37952;51.938;15.480;2023-04-06T01:50:52;16.60;;;11.10;;
51925;SDS011;37952;51.938;15.480;2023-04-06T01:53:55;16.30;;;11.00;;
51925;SDS011;37952;51.938;15.480;2023-04-06T01:56:58;16.30;;;11.10;;
51925;SDS011;37952;51.938;15.480;2023-04-06T02:00:01;16.90;;;11.20;;
51925;SDS011;37952;51.938;15.480;2023-04-06T02:03:03;16.00;;;11.00;;
51925;SDS011;37952;51.938;15.480;2023-04-06T02:06:06;17.50;;;11.50;;
51925;SDS011;37952;51.938;15.480;2023-04-06T02:13:03;13.70;;;10.60;;
51925;SDS011;37952;51.938;15.480;2023-04-06T02:16:05;19.40;;;11.00;;
51925;SDS011;37952;51.938;15.480;2023-04-06T02:19:08;16.70;;;11.10;;
51925;SDS011;37952;51.938;15.480;2023-04-06T02:22:11;21.20;;;11.10;;
51925;SDS011;37952;51.938;15.480;2023-04-06T02:25:14;17.90;;;10.90;;
51925;SDS011;37952;51.938;15.480;2023-04-06T02:28:17;14.20;;;10.80;;
51925;SDS011;37952;51.938;15.480;2023-04-06T02:31:19;22.70;;;10.60;;
51925;SDS011;37952;51.938;15.480;2023-04-06T02:34:23;15.70;;;11.20;;
51925;SDS011;37952;51.938;15.480;2023-04-06T02:37:25;15.60;;;10.70;;
51925;SDS011;37952;51.938;15.480;2023-04-06T02:40:35;16.60;;;11.90;;
51925;SDS011;37952;51.938;15.480;2023-04-06T02:43:38;15.00;;;12.10;;
51925;SDS011;37952;51.938;15.480;2023-04-06T02:46:40;21.00;;;11.70;;
51925;SDS011;37952;51.938;15.480;2023-04-06T02:49:43;18.40;;;11.50;;
51925;SDS011;37952;51.938;15.480;2023-04-06T02:52:49;15.70;;;11.00;;
51925;SDS011;37952;51.938;15.480;2023-04-06T02:59:46;15.60;;;10.40;;
51925;SDS011;37952;51.938;15.480;2023-04-06T03:02:49;17.40;;;11.20;;
51925;SDS011;37952;51.938;15.480;2023-04-06T03:05:53;14.50;;;10.70;;
51925;SDS011;37952;51.938;15.480;2023-04-06T03:08:57;20.50;;;11.10;;
51925;SDS011;37952;51.938;15.480;2023-04-06T03:15:14;15.50;;;11.30;;
51925;SDS011;37952;51.938;15.480;2023-04-06T03:18:46;17.70;;;11.90;;
51925;SDS011;37952;51.938;15.480;2023-04-06T03:21:55;12.70;;;11.20;;
51925;SDS011;37952;51.938;15.480;2023-04-06T03:28:26;10.50;;;8.90;;
51925;SDS011;37952;51.938;15.480;2023-04-06T03:32:48;12.30;;;10.30;;
51925;SDS011;37952;51.938;15.480;2023-04-06T03:36:18;16.20;;;11.10;;
51925;SDS011;37952;51.938;15.480;2023-04-06T03:39:55;17.30;;;12.20;;
51925;SDS011;37952;51.938;15.480;2023-04-06T03:42:58;19.10;;;11.10;;
51925;SDS011;37952;51.938;15.480;2023-04-06T03:46:00;15.20;;;10.60;;
51925;SDS011;37952;51.938;15.480;2023-04-06T03:49:03;12.80;;;10.30;;
51925;SDS011;37952;51.938;15.480;2023-04-06T03:52:06;16.50;;;11.80;;
51925;SDS011;37952;51.938;15.480;2023-04-06T03:55:09;15.60;;;11.00;;
51925;SDS011;37952;51.938;15.480;2023-04-06T03:58:12;15.70;;;11.40;;
51925;SDS011;37952;51.938;15.480;2023-04-06T04:01:15;17.40;;;10.80;;
51925;SDS011;37952;51.938;15.480;2023-04-06T04:04:21;14.50;;;10.90;;
51925;SDS011;37952;51.938;15.480;2023-04-06T04:07:23;14.00;;;10.70;;
51925;SDS011;37952;51.938;15.480;2023-04-06T04:10:26;14.60;;;11.00;;
51925;SDS011;37952;51.938;15.480;2023-04-06T04:13:29;14.90;;;11.30;;
51925;SDS011;37952;51.938;15.480;2023-04-06T04:20:33;10.00;;;8.70;;
51925;SDS011;37952;51.938;15.480;2023-04-06T04:23:36;13.10;;;10.80;;
51925;SDS011;37952;51.938;15.480;2023-04-06T04:26:39;12.70;;;10.10;;
51925;SDS011;37952;51.938;15.480;2023-04-06T04:29:42;16.00;;;10.40;;
51925;SDS011;37952;51.938;15.480;2023-04-06T04:32:46;15.20;;;10.90;;
51925;SDS011;37952;51.938;15.480;2023-04-06T04:35:49;13.60;;;11.10;;
51925;SDS011;37952;51.938;15.480;2023-04-06T04:38:52;12.70;;;10.40;;
51925;SDS011;37952;51.938;15.480;2023-04-06T04:41:54;14.10;;;11.50;;
51925;SDS011;37952;51.938;15.480;2023-04-06T04:44:57;15.40;;;10.80;;
51925;SDS011;37952;51.938;15.480;2023-04-06T04:48:00;15.30;;;11.60;;
51925;SDS011;37952;51.938;15.480;2023-04-06T04:51:04;17.30;;;11.30;;
51925;SDS011;37952;51.938;15.480;2023-04-06T04:54:08;14.20;;;11.20;;
51925;SDS011;37952;51.938;15.480;2023-04-06T04:57:11;15.00;;;11.50;;
51925;SDS011;37952;51.938;15.480;2023-04-06T05:00:13;17.00;;;11.90;;
51925;SDS011;37952;51.938;15.480;2023-04-06T05:03:18;16.60;;;11.70;;
51925;SDS011;37952;51.938;15.480;2023-04-06T05:06:24;16.70;;;11.70;;
51925;SDS011;37952;51.938;15.480;2023-04-06T05:09:29;15.50;;;11.60;;
51925;SDS011;37952;51.938;15.480;2023-04-06T05:12:32;15.70;;;11.70;;
51925;SDS011;37952;51.938;15.480;2023-04-06T05:19:42;15.40;;;12.00;;
51925;SDS011;37952;51.938;15.480;2023-04-06T05:22:47;21.10;;;12.10;;
51925;SDS011;37952;51.938;15.480;2023-04-06T05:25:50;18.10;;;13.30;;
51925;SDS011;37952;51.938;15.480;2023-04-06T05:28:53;19.00;;;13.00;;
51925;SDS011;37952;51.938;15.480;2023-04-06T05:31:57;19.00;;;12.90;;
51925;SDS011;37952;51.938;15.480;2023-04-06T05:57:02;33.40;;;19.30;;
51925;SDS011;37952;51.938;15.480;2023-04-06T06:00:25;25.20;;;16.60;;
51925;SDS011;37952;51.938;15.480;2023-04-06T06:03:33;27.40;;;17.80;;
51925;SDS011;37952;51.938;15.480;2023-04-06T06:09:50;64.50;;;32.40;;
51925;SDS011;37952;51.938;15.480;2023-04-06T06:13:17;68.90;;;36.00;;
51925;SDS011;37952;51.938;15.480;2023-04-06T06:16:23;69.10;;;34.70;;
51925;SDS011;37952;51.938;15.480;2023-04-06T06:19:26;65.30;;;34.10;;
51925;SDS011;37952;51.938;15.480;2023-04-06T06:22:29;73.30;;;34.70;;
51925;SDS011;37952;51.938;15.480;2023-04-06T06:25:32;54.40;;;29.80;;
51925;SDS011;37952;51.938;15.480;2023-04-06T06:28:50;52.60;;;28.60;;
51925;SDS011;37952;51.938;15.480;2023-04-06T06:32:09;40.40;;;21.90;;
51925;SDS011;37952;51.938;15.480;2023-04-06T06:35:37;28.70;;;17.00;;
51925;SDS011;37952;51.938;15.480;2023-04-06T06:43:04;18.40;;;12.90;;
51925;SDS011;37952;51.938;15.480;2023-04-06T06:46:13;16.80;;;12.20;;
51925;SDS011;37952;51.938;15.480;2023-04-06T06:53:18;16.10;;;12.00;;
51925;SDS011;37952;51.938;15.480;2023-04-06T06:56:49;13.20;;;10.40;;
51925;SDS011;37952;51.938;15.480;2023-04-06T07:00:10;13.20;;;10.50;;
51925;SDS011;37952;51.938;15.480;2023-04-06T07:03:29;13.30;;;11.20;;
51925;SDS011;37952;51.938;15.480;2023-04-06T07:10:21;12.70;;;11.00;;
51925;SDS011;37952;51.938;15.480;2023-04-06T07:13:41;17.00;;;11.30;;
51925;SDS011;37952;51.938;15.480;2023-04-06T07:17:08;16.00;;;11.70;;
51925;SDS011;37952;51.938;15.480;2023-04-06T07:20:54;19.50;;;13.30;;
51925;SDS011;37952;51.938;15.480;2023-04-06T07:24:35;15.80;;;11.60;;
51925;SDS011;37952;51.938;15.480;2023-04-06T07:28:05;24.30;;;13.50;;
51925;SDS011;37952;51.938;15.480;2023-04-06T07:31:37;16.10;;;13.40;;
51925;SDS011;37952;51.938;15.480;2023-04-06T07:35:28;20.50;;;13.50;;
51925;SDS011;37952;51.938;15.480;2023-04-06T07:39:14;12.70;;;9.20;;
51925;SDS011;37952;51.938;15.480;2023-04-06T07:43:24;9.70;;;7.10;;
51925;SDS011;37952;51.938;15.480;2023-04-06T07:54:35;6.40;;;5.80;;
51925;SDS011;37952;51.938;15.480;2023-04-06T08:02:09;4.40;;;4.10;;
51925;SDS011;37952;51.938;15.480;2023-04-06T08:05:44;9.20;;;4.90;;
51925;SDS011;37952;51.938;15.480;2023-04-06T08:08:53;7.00;;;6.40;;
51925;SDS011;37952;51.938;15.480;2023-04-06T08:18:11;13.30;;;8.30;;
51925;SDS011;37952;51.938;15.480;2023-04-06T08:24:25;7.00;;;6.40;;
51925;SDS011;37952;51.938;15.480;2023-04-06T08:27:28;7.00;;;6.40;;
51925;SDS011;37952;51.938;15.480;2023-04-06T08:30:34;9.00;;;7.60;;
51925;SDS011;37952;51.938;15.480;2023-04-06T08:33:38;14.50;;;7.60;;
51925;SDS011;37952;51.938;15.480;2023-04-06T08:36:45;9.90;;;7.20;;
51925;SDS011;37952;51.938;15.480;2023-04-06T08:39:53;7.70;;;7.10;;
51925;SDS011;37952;51.938;15.480;2023-04-06T08:42:57;10.90;;;8.30;;
51925;SDS011;37952;51.938;15.480;2023-04-06T08:46:15;8.90;;;7.60;;
51925;SDS011;37952;51.938;15.480;2023-04-06T08:49:21;7.30;;;6.60;;
51925;SDS011;37952;51.938;15.480;2023-04-06T08:52:34;6.40;;;5.80;;
51925;SDS011;37952;51.938;15.480;2023-04-06T08:55:37;7.40;;;6.70;;
51925;SDS011;37952;51.938;15.480;2023-04-06T08:58:42;5.90;;;5.40;;
51925;SDS011;37952;51.938;15.480;2023-04-06T09:01:46;5.50;;;5.20;;
51925;SDS011;37952;51.938;15.480;2023-04-06T09:04:49;6.40;;;5.80;;
51925;SDS011;37952;51.938;15.480;2023-04-06T09:07:56;7.30;;;6.10;;
51925;SDS011;37952;51.938;15.480;2023-04-06T09:11:01;6.30;;;5.70;;
51925;SDS011;37952;51.938;15.480;2023-04-06T09:14:07;5.90;;;5.50;;
51925;SDS011;37952;51.938;15.480;2023-04-06T09:17:19;5.80;;;5.40;;
51925;SDS011;37952;51.938;15.480;2023-04-06T09:20:24;6.00;;;5.40;;
51925;SDS011;37952;51.938;15.480;2023-04-06T09:23:29;5.80;;;5.30;;
51925;SDS011;37952;51.938;15.480;2023-04-06T09:26:32;7.80;;;5.30;;
51925;SDS011;37952;51.938;15.480;2023-04-06T09:30:01;5.60;;;5.10;;
51925;SDS011;37952;51.938;15.480;2023-04-06T09:33:22;6.10;;;5.40;;
51925;SDS011;37952;51.938;15.480;2023-04-06T09:36:30;6.20;;;5.50;;
51925;SDS011;37952;51.938;15.480;2023-04-06T09:39:34;5.90;;;5.30;;
51925;SDS011;37952;51.938;15.480;2023-04-06T09:42:37;6.20;;;5.40;;
51925;SDS011;37952;51.938;15.480;2023-04-06T09:45:42;7.20;;;5.10;;
51925;SDS011;37952;51.938;15.480;2023-04-06T09:48:46;5.90;;;4.30;;
51925;SDS011;37952;51.938;15.480;2023-04-06T09:55:46;4.90;;;4.50;;
51925;SDS011;37952;51.938;15.480;2023-04-06T09:58:57;5.20;;;4.70;;
51925;SDS011;37952;51.938;15.480;2023-04-06T10:02:08;8.10;;;5.00;;
51925;SDS011;37952;51.938;15.480;2023-04-06T10:08:43;5.40;;;4.90;;
51925;SDS011;37952;51.938;15.480;2023-04-06T10:11:50;7.50;;;4.80;;
51925;SDS011;37952;51.938;15.480;2023-04-06T10:14:56;5.50;;;5.00;;
51925;SDS011;37952;51.938;15.480;2023-04-06T10:18:02;5.20;;;4.80;;
51925;SDS011;37952;51.938;15.480;2023-04-06T10:21:08;7.20;;;4.40;;
51925;SDS011;37952;51.938;15.480;2023-04-06T10:24:17;4.10;;;3.80;;
51925;SDS011;37952;51.938;15.480;2023-04-06T10:27:27;4.20;;;3.80;;
51925;SDS011;37952;51.938;15.480;2023-04-06T10:30:35;3.90;;;3.40;;
51925;SDS011;37952;51.938;15.480;2023-04-06T10:33:53;4.00;;;3.70;;
51925;SDS011;37952;51.938;15.480;2023-04-06T10:36:58;3.70;;;3.50;;
51925;SDS011;37952;51.938;15.480;2023-04-06T10:40:23;3.60;;;3.10;;
51925;SDS011;37952;51.938;15.480;2023-04-06T10:43:32;3.40;;;3.20;;
51925;SDS011;37952;51.938;15.480;2023-04-06T10:46:41;3.70;;;2.80;;
51925;SDS011;37952;51.938;15.480;2023-04-06T10:49:56;3.80;;;3.20;;
51925;SDS011;37952;51.938;15.480;2023-04-06T10:53:03;5.60;;;3.40;;
51925;SDS011;37952;51.938;15.480;2023-04-06T10:56:09;3.50;;;3.30;;
51925;SDS011;37952;51.938;15.480;2023-04-06T10:59:19;3.20;;;3.00;;
51925;SDS011;37952;51.938;15.480;2023-04-06T11:02:24;4.90;;;2.80;;
51925;SDS011;37952;51.938;15.480;2023-04-06T11:05:29;3.40;;;2.50;;
51925;SDS011;37952;51.938;15.480;2023-04-06T11:08:34;3.30;;;2.80;;
51925;SDS011;37952;51.938;15.480;2023-04-06T11:15:21;3.80;;;3.60;;
51925;SDS011;37952;51.938;15.480;2023-04-06T11:18:24;3.90;;;3.60;;
51925;SDS011;37952;51.938;15.480;2023-04-06T11:21:36;4.30;;;3.90;;
51925;SDS011;37952;51.938;15.480;2023-04-06T11:24:50;5.80;;;4.40;;
51925;SDS011;37952;51.938;15.480;2023-04-06T11:27:58;4.90;;;4.40;;
51925;SDS011;37952;51.938;15.480;2023-04-06T11:31:04;5.10;;;4.80;;
51925;SDS011;37952;51.938;15.480;2023-04-06T11:34:09;5.00;;;4.50;;
51925;SDS011;37952;51.938;15.480;2023-04-06T11:37:21;5.40;;;4.60;;
51925;SDS011;37952;51.938;15.480;2023-04-06T11:47:42;5.00;;;4.70;;
51925;SDS011;37952;51.938;15.480;2023-04-06T11:50:48;5.60;;;5.00;;
51925;SDS011;37952;51.938;15.480;2023-04-06T11:53:57;5.50;;;5.10;;
51925;SDS011;37952;51.938;15.480;2023-04-06T11:57:03;5.00;;;4.60;;
51925;SDS011;37952;51.938;15.480;2023-04-06T12:00:10;6.00;;;4.40;;
51925;SDS011;37952;51.938;15.480;2023-04-06T12:03:14;4.40;;;4.10;;
51925;SDS011;37952;51.938;15.480;2023-04-06T12:06:18;4.90;;;4.50;;
51925;SDS011;37952;51.938;15.480;2023-04-06T12:09:22;5.00;;;4.60;;
51925;SDS011;37952;51.938;15.480;2023-04-06T12:12:26;5.90;;;5.40;;
51925;SDS011;37952;51.938;15.480;2023-04-06T12:15:29;5.80;;;5.40;;
51925;SDS011;37952;51.938;15.480;2023-04-06T12:18:32;7.90;;;5.20;;
51925;SDS011;37952;51.938;15.480;2023-04-06T12:21:36;5.40;;;4.70;;
51925;SDS011;37952;51.938;15.480;2023-04-06T12:24:47;5.10;;;4.80;;
51925;SDS011;37952;51.938;15.480;2023-04-06T12:27:52;6.30;;;4.50;;
51925;SDS011;37952;51.938;15.480;2023-04-06T12:30:59;4.80;;;4.50;;
51925;SDS011;37952;51.938;15.480;2023-04-06T12:34:06;4.70;;;4.40;;
51925;SDS011;37952;51.938;15.480;2023-04-06T12:37:10;4.80;;;4.40;;
51925;SDS011;37952;51.938;15.480;2023-04-06T12:40:17;7.90;;;7.10;;
51925;SDS011;37952;51.938;15.480;2023-04-06T12:43:21;5.50;;;5.00;;
51925;SDS011;37952;51.938;15.480;2023-04-06T12:46:26;4.50;;;4.20;;
51925;SDS011;37952;51.938;15.480;2023-04-06T12:49:30;5.40;;;4.10;;
51925;SDS011;37952;51.938;15.480;2023-04-06T12:52:35;4.60;;;3.80;;
51925;SDS011;37952;51.938;15.480;2023-04-06T12:55:39;3.90;;;3.70;;
51925;SDS011;37952;51.938;15.480;2023-04-06T12:58:44;4.30;;;3.90;;
51925;SDS011;37952;51.938;15.480;2023-04-06T13:01:56;4.30;;;4.00;;
51925;SDS011;37952;51.938;15.480;2023-04-06T13:05:06;5.00;;;4.30;;
51925;SDS011;37952;51.938;15.480;2023-04-06T13:08:11;4.70;;;4.40;;
51925;SDS011;37952;51.938;15.480;2023-04-06T13:11:18;7.80;;;4.40;;
51925;SDS011;37952;51.938;15.480;2023-04-06T13:14:23;5.00;;;4.60;;
51925;SDS011;37952;51.938;15.480;2023-04-06T13:17:27;5.60;;;5.10;;
51925;SDS011;37952;51.938;15.480;2023-04-06T13:20:39;4.80;;;4.50;;
51925;SDS011;37952;51.938;15.480;2023-04-06T13:23:50;4.70;;;4.40;;
51925;SDS011;37952;51.938;15.480;2023-04-06T13:26:53;5.50;;;4.30;;
51925;SDS011;37952;51.938;15.480;2023-04-06T13:29:59;4.60;;;4.30;;
51925;SDS011;37952;51.938;15.480;2023-04-06T13:33:04;4.60;;;4.30;;
51925;SDS011;37952;51.938;15.480;2023-04-06T13:36:31;6.30;;;4.00;;
51925;SDS011;37952;51.938;15.480;2023-04-06T13:39:35;4.70;;;4.10;;
51925;SDS011;37952;51.938;15.480;2023-04-06T13:42:41;4.10;;;3.90;;
51925;SDS011;37952;51.938;15.480;2023-04-06T13:49:53;4.30;;;3.90;;
51925;SDS011;37952;51.938;15.480;2023-04-06T13:52:57;4.10;;;3.60;;
51925;SDS011;37952;51.938;15.480;2023-04-06T13:56:02;4.40;;;4.10;;
51925;SDS011;37952;51.938;15.480;2023-04-06T13:59:05;4.10;;;3.80;;
51925;SDS011;37952;51.938;15.480;2023-04-06T14:02:09;4.40;;;4.10;;
51925;SDS011;37952;51.938;15.480;2023-04-06T14:05:13;4.70;;;4.30;;
51925;SDS011;37952;51.938;15.480;2023-04-06T14:08:17;4.30;;;4.00;;
51925;SDS011;37952;51.938;15.480;2023-04-06T14:11:22;4.30;;;4.00;;
51925;SDS011;37952;51.938;15.480;2023-04-06T14:14:36;3.90;;;3.60;;
51925;SDS011;37952;51.938;15.480;2023-04-06T14:18:09;4.40;;;4.00;;
51925;SDS011;37952;51.938;15.480;2023-04-06T14:21:13;3.80;;;3.60;;
51925;SDS011;37952;51.938;15.480;2023-04-06T14:24:26;4.80;;;3.90;;
51925;SDS011;37952;51.938;15.480;2023-04-06T14:27:36;4.20;;;3.30;;
51925;SDS011;37952;51.938;15.480;2023-04-06T14:31:00;5.00;;;4.00;;
51925;SDS011;37952;51.938;15.480;2023-04-06T14:34:27;4.60;;;4.30;;
51925;SDS011;37952;51.938;15.480;2023-04-06T14:37:42;8.00;;;4.00;;
51925;SDS011;37952;51.938;15.480;2023-04-06T14:41:03;4.90;;;4.10;;
51925;SDS011;37952;51.938;15.480;2023-04-06T14:45:02;4.70;;;4.40;;
51925;SDS011;37952;51.938;15.480;2023-04-06T14:48:36;4.80;;;4.50;;
51925;SDS011;37952;51.938;15.480;2023-04-06T14:51:48;5.20;;;4.70;;
51925;SDS011;37952;51.938;15.480;2023-04-06T14:55:18;7.80;;;5.70;;
51925;SDS011;37952;51.938;15.480;2023-04-06T14:58:35;8.70;;;4.90;;
51925;SDS011;37952;51.938;15.480;2023-04-06T15:01:46;4.80;;;4.50;;
51925;SDS011;37952;51.938;15.480;2023-04-06T15:04:57;5.10;;;4.80;;
51925;SDS011;37952;51.938;15.480;2023-04-06T15:08:10;5.80;;;5.20;;
51925;SDS011;37952;51.938;15.480;2023-04-06T15:11:22;5.10;;;4.20;;
51925;SDS011;37952;51.938;15.480;2023-04-06T15:14:25;4.60;;;4.30;;
51925;SDS011;37952;51.938;15.480;2023-04-06T15:17:29;4.00;;;3.70;;
51925;SDS011;37952;51.938;15.480;2023-04-06T15:20:38;4.00;;;3.50;;
51925;SDS011;37952;51.938;15.480;2023-04-06T15:23:43;4.30;;;4.00;;
51925;SDS011;37952;51.938;15.480;2023-04-06T15:26:46;4.20;;;3.60;;
51925;SDS011;37952;51.938;15.480;2023-04-06T15:29:52;5.60;;;3.80;;
51925;SDS011;37952;51.938;15.480;2023-04-06T15:32:57;4.60;;;4.10;;
51925;SDS011;37952;51.938;15.480;2023-04-06T15:36:17;5.40;;;4.60;;
51925;SDS011;37952;51.938;15.480;2023-04-06T15:39:30;4.00;;;3.70;;
51925;SDS011;37952;51.938;15.480;2023-04-06T15:42:36;5.10;;;3.90;;
51925;SDS011;37952;51.938;15.480;2023-04-06T15:45:39;7.00;;;5.10;;
51925;SDS011;37952;51.938;15.480;2023-04-06T15:48:45;5.30;;;4.90;;
51925;SDS011;37952;51.938;15.480;2023-04-06T15:51:55;5.50;;;4.60;;
51925;SDS011;37952;51.938;15.480;2023-04-06T15:54:58;4.80;;;4.50;;
51925;SDS011;37952;51.938;15.480;2023-04-06T15:58:08;5.00;;;4.60;;
51925;SDS011;37952;51.938;15.480;2023-04-06T16:01:14;5.30;;;4.80;;
51925;SDS011;37952;51.938;15.480;2023-04-06T16:04:24;4.20;;;4.00;;
51925;SDS011;37952;51.938;15.480;2023-04-06T16:07:30;4.60;;;4.30;;
51925;SDS011;37952;51.938;15.480;2023-04-06T16:10:35;4.10;;;3.90;;
51925;SDS011;37952;51.938;15.480;2023-04-06T16:13:38;4.50;;;4.20;;
51925;SDS011;37952;51.938;15.480;2023-04-06T16:16:42;3.80;;;3.50;;
51925;SDS011;37952;51.938;15.480;2023-04-06T16:19:46;4.30;;;3.70;;
51925;SDS011;37952;51.938;15.480;2023-04-06T16:22:48;4.20;;;3.80;;
51925;SDS011;37952;51.938;15.480;2023-04-06T16:25:51;4.20;;;3.90;;
51925;SDS011;37952;51.938;15.480;2023-04-06T16:28:55;4.30;;;3.90;;
51925;SDS011;37952;51.938;15.480;2023-04-06T16:31:59;4.80;;;4.20;;
51925;SDS011;37952;51.938;15.480;2023-04-06T16:35:03;4.40;;;4.00;;
51925;SDS011;37952;51.938;15.480;2023-04-06T16:38:06;5.10;;;3.10;;
51925;SDS011;37952;51.938;15.480;2023-04-06T16:41:09;4.20;;;3.80;;
51925;SDS011;37952;51.938;15.480;2023-04-06T16:44:11;3.70;;;3.40;;
51925;SDS011;37952;51.938;15.480;2023-04-06T16:47:14;4.10;;;3.80;;
51925;SDS011;37952;51.938;15.480;2023-04-06T16:50:20;3.80;;;3.50;;
51925;SDS011;37952;51.938;15.480;2023-04-06T16:53:23;4.40;;;3.90;;
51925;SDS011;37952;51.938;15.480;2023-04-06T16:56:25;4.00;;;3.70;;
51925;SDS011;37952;51.938;15.480;2023-04-06T16:59:29;4.30;;;3.90;;
51925;SDS011;37952;51.938;15.480;2023-04-06T17:05:51;3.90;;;3.70;;
51925;SDS011;37952;51.938;15.480;2023-04-06T17:08:53;3.80;;;3.50;;
51925;SDS011;37952;51.938;15.480;2023-04-06T17:15:21;3.70;;;3.40;;
51925;SDS011;37952;51.938;15.480;2023-04-06T17:18:26;3.10;;;2.90;;
51925;SDS011;37952;51.938;15.480;2023-04-06T17:21:40;4.00;;;3.70;;
51925;SDS011;37952;51.938;15.480;2023-04-06T17:24:43;4.80;;;3.80;;
51925;SDS011;37952;51.938;15.480;2023-04-06T17:27:46;4.10;;;3.80;;
51925;SDS011;37952;51.938;15.480;2023-04-06T17:30:49;5.90;;;5.20;;
51925;SDS011;37952;51.938;15.480;2023-04-06T17:33:52;6.60;;;4.60;;
51925;SDS011;37952;51.938;15.480;2023-04-06T17:36:55;5.50;;;5.10;;
51925;SDS011;37952;51.938;15.480;2023-04-06T17:39:58;6.20;;;5.60;;
51925;SDS011;37952;51.938;15.480;2023-04-06T17:43:01;6.30;;;5.70;;
51925;SDS011;37952;51.938;15.480;2023-04-06T17:46:03;5.80;;;5.30;;
51925;SDS011;37952;51.938;15.480;2023-04-06T17:49:07;5.40;;;4.90;;
51925;SDS011;37952;51.938;15.480;2023-04-06T17:52:11;6.00;;;5.50;;
51925;SDS011;37952;51.938;15.480;2023-04-06T17:55:13;6.70;;;6.10;;
51925;SDS011;37952;51.938;15.480;2023-04-06T18:01:24;11.50;;;9.00;;
51925;SDS011;37952;51.938;15.480;2023-04-06T18:04:28;24.30;;;10.20;;
51925;SDS011;37952;51.938;15.480;2023-04-06T18:07:30;25.20;;;14.20;;
51925;SDS011;37952;51.938;15.480;2023-04-06T18:10:35;21.50;;;13.10;;
51925;SDS011;37952;51.938;15.480;2023-04-06T18:13:40;14.60;;;10.70;;
51925;SDS011;37952;51.938;15.480;2023-04-06T18:16:42;15.20;;;10.80;;
51925;SDS011;37952;51.938;15.480;2023-04-06T18:19:46;13.00;;;9.60;;
51925;SDS011;37952;51.938;15.480;2023-04-06T18:22:51;16.00;;;10.40;;
51925;SDS011;37952;51.938;15.480;2023-04-06T18:25:54;29.20;;;12.00;;
51925;SDS011;37952;51.938;15.480;2023-04-06T18:28:58;30.40;;;13.10;;
51925;SDS011;37952;51.938;15.480;2023-04-06T18:32:01;29.60;;;14.00;;
51925;SDS011;37952;51.938;15.480;2023-04-06T18:35:18;36.60;;;14.40;;
51925;SDS011;37952;51.938;15.480;2023-04-06T18:38:21;31.10;;;12.70;;
51925;SDS011;37952;51.938;15.480;2023-04-06T18:41:25;32.00;;;14.00;;
51925;SDS011;37952;51.938;15.480;2023-04-06T18:44:28;25.00;;;12.50;;
51925;SDS011;37952;51.938;15.480;2023-04-06T18:47:32;22.20;;;11.70;;
51925;SDS011;37952;51.938;15.480;2023-04-06T18:50:35;19.50;;;10.50;;
51925;SDS011;37952;51.938;15.480;2023-04-06T18:53:38;17.40;;;11.10;;
51925;SDS011;37952;51.938;15.480;2023-04-06T18:56:55;12.80;;;10.40;;
51925;SDS011;37952;51.938;15.480;2023-04-06T19:00:00;18.80;;;11.20;;
51925;SDS011;37952;51.938;15.480;2023-04-06T19:03:05;15.60;;;10.80;;
51925;SDS011;37952;51.938;15.480;2023-04-06T19:06:08;12.60;;;10.80;;
51925;SDS011;37952;51.938;15.480;2023-04-06T19:09:11;12.40;;;10.30;;
51925;SDS011;37952;51.938;15.480;2023-04-06T19:12:14;12.90;;;10.50;;
51925;SDS011;37952;51.938;15.480;2023-04-06T19:15:17;12.70;;;9.30;;
51925;SDS011;37952;51.938;15.480;2023-04-06T19:18:20;13.70;;;9.30;;
51925;SDS011;37952;51.938;15.480;2023-04-06T19:21:23;10.50;;;8.50;;
51925;SDS011;37952;51.938;15.480;2023-04-06T19:24:27;11.70;;;8.70;;
51925;SDS011;37952;51.938;15.480;2023-04-06T19:27:31;9.90;;;8.70;;
51925;SDS011;37952;51.938;15.480;2023-04-06T19:30:37;10.00;;;8.80;;
51925;SDS011;37952;51.938;15.480;2023-04-06T19:33:41;19.30;;;9.20;;
51925;SDS011;37952;51.938;15.480;2023-04-06T19:36:45;13.50;;;9.50;;
51925;SDS011;37952;51.938;15.480;2023-04-06T19:39:48;15.60;;;10.90;;
51925;SDS011;37952;51.938;15.480;2023-04-06T19:42:51;13.90;;;10.80;;
51925;SDS011;37952;51.938;15.480;2023-04-06T19:45:53;20.40;;;11.10;;
51925;SDS011;37952;51.938;15.480;2023-04-06T19:48:56;17.10;;;10.90;;
51925;SDS011;37952;51.938;15.480;2023-04-06T19:52:02;13.70;;;11.10;;
51925;SDS011;37952;51.938;15.480;2023-04-06T19:55:04;13.40;;;10.80;;
51925;SDS011;37952;51.938;15.480;2023-04-06T19:58:07;13.70;;;10.90;;
51925;SDS011;37952;51.938;15.480;2023-04-06T20:01:10;18.10;;;11.40;;
51925;SDS011;37952;51.938;15.480;2023-04-06T20:04:13;18.70;;;11.50;;
51925;SDS011;37952;51.938;15.480;2023-04-06T20:07:16;14.10;;;11.50;;
51925;SDS011;37952;51.938;15.480;2023-04-06T20:10:18;14.60;;;11.10;;
51925;SDS011;37952;51.938;15.480;2023-04-06T20:13:21;14.60;;;11.60;;
51925;SDS011;37952;51.938;15.480;2023-04-06T20:16:23;15.90;;;12.00;;
51925;SDS011;37952;51.938;15.480;2023-04-06T20:19:26;18.10;;;12.80;;